createdAt,value
2018-12-02T00:00:44.097Z,16.93
2018-12-02T00:01:44.670Z,16.87
2018-12-02T00:03:29.760Z,16.94
2018-12-02T00:04:30.335Z,16.93
2018-12-02T00:05:30.908Z,16.90
2018-12-02T00:06:31.482Z,16.90
2018-12-02T00:07:32.156Z,16.87
2018-12-02T00:08:32.730Z,16.83
2018-12-02T00:09:33.301Z,16.83
2018-12-02T00:10:33.874Z,16.86
2018-12-02T00:11:34.445Z,16.89
2018-12-02T00:12:35.063Z,16.87
2018-12-02T00:13:35.593Z,16.93
2018-12-02T00:14:36.166Z,16.94
2018-12-02T00:15:36.741Z,16.91
2018-12-02T00:16:37.367Z,16.91
2018-12-02T00:17:37.982Z,16.86
2018-12-02T00:18:38.558Z,16.89
2018-12-02T00:19:39.183Z,16.81
2018-12-02T00:20:39.755Z,16.90
2018-12-02T00:21:40.330Z,16.87
2018-12-02T00:22:40.904Z,16.94
2018-12-02T00:23:41.479Z,16.91
2018-12-02T00:25:26.566Z,16.91
2018-12-02T00:26:27.191Z,16.93
2018-12-02T00:27:27.771Z,16.81
2018-12-02T00:28:28.340Z,16.83
2018-12-02T00:29:28.912Z,16.79
2018-12-02T00:30:29.585Z,16.84
2018-12-02T00:31:30.160Z,16.86
2018-12-02T00:32:30.833Z,16.86
2018-12-02T00:33:31.407Z,16.72
2018-12-02T00:34:31.985Z,16.79
2018-12-02T00:35:32.657Z,16.83
2018-12-02T00:36:33.231Z,16.78
2018-12-02T00:37:33.805Z,16.72
2018-12-02T00:38:34.379Z,16.74
2018-12-02T00:39:34.952Z,16.71
2018-12-02T00:40:35.525Z,16.71
2018-12-02T00:41:36.100Z,16.71
2018-12-02T00:42:36.672Z,16.71
2018-12-02T00:43:37.246Z,16.72
2018-12-02T00:44:37.820Z,16.74
2018-12-02T00:45:38.394Z,16.66
2018-12-02T00:47:23.479Z,16.71
2018-12-02T00:48:24.255Z,16.69
2018-12-02T00:49:24.836Z,16.75
2018-12-02T00:50:25.447Z,16.72
2018-12-02T00:51:26.071Z,16.74
2018-12-02T00:52:26.645Z,16.71
2018-12-02T00:53:27.220Z,16.72
2018-12-02T00:54:27.795Z,16.71
2018-12-02T00:55:28.420Z,16.71
2018-12-02T00:56:28.994Z,16.71
2018-12-02T00:57:29.567Z,16.72
2018-12-02T00:58:30.141Z,16.72
2018-12-02T00:59:30.714Z,16.72
2018-12-02T01:00:31.288Z,16.69
2018-12-02T01:01:31.860Z,16.69
2018-12-02T01:02:32.436Z,16.72
2018-12-02T01:03:33.060Z,16.66
2018-12-02T01:04:33.634Z,16.68
2018-12-02T01:05:34.210Z,16.60
2018-12-02T01:06:34.827Z,16.64
2018-12-02T01:07:35.402Z,16.61
2018-12-02T01:09:20.539Z,16.58
2018-12-02T01:10:21.115Z,16.60
2018-12-02T01:11:21.690Z,16.64
2018-12-02T01:12:22.266Z,16.57
2018-12-02T01:13:22.989Z,16.65
2018-12-02T01:14:23.561Z,16.64
2018-12-02T01:15:24.137Z,16.66
2018-12-02T01:16:24.710Z,16.64
2018-12-02T01:17:25.286Z,16.65
2018-12-02T01:18:25.857Z,16.66
2018-12-02T01:19:26.433Z,16.60
2018-12-02T01:20:27.048Z,16.58
2018-12-02T01:21:27.626Z,16.61
2018-12-02T01:22:28.246Z,16.61
2018-12-02T01:23:28.823Z,16.64
2018-12-02T01:24:29.445Z,16.64
2018-12-02T01:25:30.020Z,16.66
2018-12-02T01:26:30.594Z,16.60
2018-12-02T01:27:31.168Z,16.58
2018-12-02T01:28:31.796Z,16.58
2018-12-02T01:29:32.369Z,16.66
2018-12-02T01:31:17.461Z,16.60
2018-12-02T01:32:18.033Z,16.57
2018-12-02T01:33:18.607Z,16.68
2018-12-02T01:34:19.183Z,16.66
2018-12-02T01:35:19.757Z,16.65
2018-12-02T01:36:20.333Z,16.61
2018-12-02T01:37:20.908Z,16.66
2018-12-02T01:38:21.481Z,16.65
2018-12-02T01:39:22.051Z,16.58
2018-12-02T01:40:22.636Z,16.61
2018-12-02T01:41:23.201Z,16.57
2018-12-02T01:42:23.774Z,16.61
2018-12-02T01:43:24.397Z,16.60
2018-12-02T01:44:25.023Z,16.65
2018-12-02T01:45:25.597Z,16.68
2018-12-02T01:46:26.215Z,16.57
2018-12-02T01:47:26.839Z,16.58
2018-12-02T01:48:27.411Z,16.61
2018-12-02T01:49:27.985Z,16.57
2018-12-02T01:50:28.562Z,16.57
2018-12-02T01:51:29.131Z,16.66
2018-12-02T01:53:14.218Z,16.69
2018-12-02T01:54:14.793Z,16.54
2018-12-02T01:55:15.367Z,16.54
2018-12-02T01:56:15.944Z,16.58
2018-12-02T01:57:16.518Z,16.57
2018-12-02T01:58:17.092Z,16.57
2018-12-02T01:59:17.665Z,16.57
2018-12-02T02:00:18.239Z,16.57
2018-12-02T02:01:18.863Z,16.61
2018-12-02T02:02:19.436Z,16.58
2018-12-02T02:03:20.011Z,16.58
2018-12-02T02:04:20.632Z,16.65
2018-12-02T02:05:21.257Z,16.58
2018-12-02T02:06:21.831Z,16.53
2018-12-02T02:07:22.403Z,16.50
2018-12-02T02:08:22.980Z,16.50
2018-12-02T02:09:23.551Z,16.53
2018-12-02T02:10:24.123Z,16.60
2018-12-02T02:11:24.698Z,16.60
2018-12-02T02:12:25.273Z,16.57
2018-12-02T02:13:25.845Z,16.58
2018-12-02T02:15:10.932Z,16.57
2018-12-02T02:16:11.508Z,16.57
2018-12-02T02:17:12.085Z,16.60
2018-12-02T02:18:12.658Z,16.57
2018-12-02T02:19:13.231Z,16.57
2018-12-02T02:20:13.805Z,16.58
2018-12-02T02:21:14.429Z,16.57
2018-12-02T02:22:15.002Z,16.54
2018-12-02T02:23:15.575Z,16.51
2018-12-02T02:24:16.199Z,16.42
2018-12-02T02:25:16.824Z,16.64
2018-12-02T02:26:17.397Z,16.51
2018-12-02T02:27:17.972Z,16.58
2018-12-02T02:28:18.544Z,16.57
2018-12-02T02:29:19.117Z,16.41
2018-12-02T02:30:19.691Z,16.53
2018-12-02T02:31:20.266Z,16.47
2018-12-02T02:32:20.838Z,16.42
2018-12-02T02:33:21.412Z,16.47
2018-12-02T02:34:21.985Z,16.38
2018-12-02T02:35:22.558Z,16.43
2018-12-02T02:37:07.645Z,16.49
2018-12-02T02:38:08.220Z,16.46
2018-12-02T02:39:08.794Z,16.51
2018-12-02T02:40:09.463Z,16.42
2018-12-02T02:41:10.035Z,16.41
2018-12-02T02:42:10.607Z,16.43
2018-12-02T02:43:11.181Z,16.41
2018-12-02T02:44:11.753Z,16.47
2018-12-02T02:45:12.328Z,16.47
2018-12-02T02:46:12.950Z,16.43
2018-12-02T02:47:13.577Z,16.53
2018-12-02T02:48:14.149Z,16.43
2018-12-02T02:49:14.725Z,16.60
2018-12-02T02:50:15.297Z,16.46
2018-12-02T02:51:15.872Z,16.54
2018-12-02T02:52:16.446Z,16.49
2018-12-02T02:53:17.020Z,16.57
2018-12-02T02:54:17.591Z,16.54
2018-12-02T02:55:18.167Z,16.50
2018-12-02T02:56:18.740Z,16.64
2018-12-02T02:57:19.365Z,16.47
2018-12-02T02:59:04.452Z,16.58
2018-12-02T03:00:05.028Z,16.49
2018-12-02T03:01:05.602Z,16.60
2018-12-02T03:02:06.178Z,16.60
2018-12-02T03:03:06.752Z,16.50
2018-12-02T03:04:07.325Z,16.49
2018-12-02T03:05:07.898Z,16.50
2018-12-02T03:06:08.523Z,16.47
2018-12-02T03:07:09.095Z,16.57
2018-12-02T03:08:09.670Z,16.43
2018-12-02T03:09:10.245Z,16.42
2018-12-02T03:10:10.913Z,16.56
2018-12-02T03:11:11.484Z,16.46
2018-12-02T03:12:12.109Z,16.49
2018-12-02T03:13:12.682Z,16.43
2018-12-02T03:14:13.255Z,16.46
2018-12-02T03:15:13.832Z,16.58
2018-12-02T03:16:14.402Z,16.42
2018-12-02T03:17:15.026Z,16.50
2018-12-02T03:18:15.604Z,16.43
2018-12-02T03:19:16.177Z,16.43
2018-12-02T03:21:01.265Z,16.43
2018-12-02T03:22:01.883Z,16.43
2018-12-02T03:23:02.458Z,16.51
2018-12-02T03:24:03.080Z,16.54
2018-12-02T03:25:03.693Z,16.43
2018-12-02T03:26:04.316Z,16.46
2018-12-02T03:27:04.940Z,16.50
2018-12-02T03:28:05.513Z,16.49
2018-12-02T03:29:06.090Z,16.43
2018-12-02T03:30:06.662Z,16.50
2018-12-02T03:31:07.261Z,16.39
2018-12-02T03:32:07.814Z,16.43
2018-12-02T03:33:08.387Z,16.46
2018-12-02T03:34:08.960Z,16.41
2018-12-02T03:35:09.533Z,16.43
2018-12-02T03:36:10.107Z,16.51
2018-12-02T03:37:10.682Z,16.42
2018-12-02T03:38:11.303Z,16.43
2018-12-02T03:39:11.878Z,16.41
2018-12-02T03:40:12.457Z,16.42
2018-12-02T03:41:13.071Z,16.42
2018-12-02T03:42:58.209Z,16.43
2018-12-02T03:43:58.785Z,16.49
2018-12-02T03:44:59.357Z,16.49
2018-12-02T03:45:59.934Z,16.47
2018-12-02T03:47:00.506Z,16.43
2018-12-02T03:48:01.079Z,16.42
2018-12-02T03:49:01.701Z,16.47
2018-12-02T03:50:02.274Z,16.43
2018-12-02T03:51:02.846Z,16.41
2018-12-02T03:52:03.421Z,16.38
2018-12-02T03:53:03.994Z,16.47
2018-12-02T03:54:04.578Z,16.49
2018-12-02T03:55:05.139Z,16.39
2018-12-02T03:56:05.713Z,16.43
2018-12-02T03:57:06.285Z,16.43
2018-12-02T03:58:06.860Z,16.43
2018-12-02T03:59:07.485Z,16.42
2018-12-02T04:00:08.056Z,16.46
2018-12-02T04:01:08.683Z,16.42
2018-12-02T04:02:09.258Z,16.39
2018-12-02T04:03:09.831Z,16.43
2018-12-02T04:04:54.918Z,16.49
2018-12-02T04:05:55.492Z,16.39
2018-12-02T04:06:56.066Z,16.38
2018-12-02T04:07:56.644Z,16.32
2018-12-02T04:08:57.309Z,16.36
2018-12-02T04:09:57.882Z,16.33
2018-12-02T04:10:58.456Z,16.36
2018-12-02T04:11:59.029Z,16.33
2018-12-02T04:12:59.602Z,16.35
2018-12-02T04:14:00.174Z,16.33
2018-12-02T04:15:00.748Z,16.36
2018-12-02T04:16:01.321Z,16.36
2018-12-02T04:17:01.944Z,16.29
2018-12-02T04:18:02.519Z,16.32
2018-12-02T04:19:03.144Z,16.35
2018-12-02T04:20:03.717Z,16.33
2018-12-02T04:21:04.293Z,16.33
2018-12-02T04:22:04.864Z,16.32
2018-12-02T04:23:05.438Z,16.32
2018-12-02T04:24:06.014Z,16.41
2018-12-02T04:25:06.599Z,16.38
2018-12-02T04:26:51.672Z,16.32
2018-12-02T04:27:52.249Z,16.38
2018-12-02T04:28:52.822Z,16.33
2018-12-02T04:29:53.448Z,16.43
2018-12-02T04:30:54.025Z,16.43
2018-12-02T04:31:54.593Z,16.39
2018-12-02T04:32:55.170Z,16.33
2018-12-02T04:33:55.783Z,16.36
2018-12-02T04:34:56.356Z,16.36
2018-12-02T04:35:56.929Z,16.39
2018-12-02T04:36:57.508Z,16.35
2018-12-02T04:37:58.077Z,16.41
2018-12-02T04:38:58.701Z,16.41
2018-12-02T04:39:59.278Z,16.43
2018-12-02T04:40:59.944Z,16.33
2018-12-02T04:42:00.518Z,16.35
2018-12-02T04:43:01.093Z,16.41
2018-12-02T04:44:01.663Z,16.35
2018-12-02T04:45:02.238Z,16.39
2018-12-02T04:46:02.811Z,16.32
2018-12-02T04:47:03.385Z,16.33
2018-12-02T04:48:48.471Z,16.36
2018-12-02T04:49:49.090Z,16.29
2018-12-02T04:50:49.714Z,16.39
2018-12-02T04:51:50.288Z,16.41
2018-12-02T04:52:50.862Z,16.36
2018-12-02T04:53:51.434Z,16.33
2018-12-02T04:54:52.007Z,16.41
2018-12-02T04:55:52.630Z,16.35
2018-12-02T04:56:53.205Z,16.46
2018-12-02T04:57:53.829Z,16.33
2018-12-02T04:58:54.403Z,16.35
2018-12-02T04:59:54.977Z,16.33
2018-12-02T05:00:55.593Z,16.31
2018-12-02T05:01:56.166Z,16.32
2018-12-02T05:02:56.740Z,16.36
2018-12-02T05:03:57.314Z,16.41
2018-12-02T05:04:57.890Z,16.32
2018-12-02T05:05:58.461Z,16.38
2018-12-02T05:06:59.039Z,16.31
2018-12-02T05:07:59.608Z,16.38
2018-12-02T05:09:00.235Z,16.36
2018-12-02T05:10:45.322Z,16.35
2018-12-02T05:11:45.939Z,16.41
2018-12-02T05:12:46.514Z,16.29
2018-12-02T05:13:47.089Z,16.28
2018-12-02T05:14:47.663Z,16.31
2018-12-02T05:15:48.286Z,16.23
2018-12-02T05:16:48.859Z,16.31
2018-12-02T05:17:49.432Z,16.41
2018-12-02T05:18:50.005Z,16.36
2018-12-02T05:19:50.577Z,16.28
2018-12-02T05:20:51.151Z,16.33
2018-12-02T05:21:51.723Z,16.41
2018-12-02T05:22:52.299Z,16.31
2018-12-02T05:23:52.918Z,16.33
2018-12-02T05:24:53.488Z,16.36
2018-12-02T05:25:54.112Z,16.38
2018-12-02T05:26:54.693Z,16.36
2018-12-02T05:27:55.260Z,16.35
2018-12-02T05:28:55.892Z,16.29
2018-12-02T05:29:56.460Z,16.32
2018-12-02T05:30:57.031Z,16.33
2018-12-02T05:32:42.120Z,16.33
2018-12-02T05:33:42.743Z,16.31
2018-12-02T05:34:43.316Z,16.35
2018-12-02T05:35:43.894Z,16.35
2018-12-02T05:36:44.479Z,16.35
2018-12-02T05:37:45.037Z,16.38
2018-12-02T05:38:45.653Z,16.36
2018-12-02T05:39:46.227Z,16.38
2018-12-02T05:40:46.841Z,16.32
2018-12-02T05:41:47.415Z,16.35
2018-12-02T05:42:47.990Z,16.33
2018-12-02T05:43:48.560Z,16.39
2018-12-02T05:44:49.135Z,16.26
2018-12-02T05:45:49.706Z,16.33
2018-12-02T05:46:50.278Z,16.36
2018-12-02T05:47:50.908Z,16.31
2018-12-02T05:48:51.522Z,16.24
2018-12-02T05:49:52.145Z,16.35
2018-12-02T05:50:52.720Z,16.32
2018-12-02T05:51:53.392Z,16.24
2018-12-02T05:52:53.920Z,16.29
2018-12-02T05:54:39.009Z,16.28
2018-12-02T05:55:39.582Z,16.32
2018-12-02T05:56:40.157Z,16.28
2018-12-02T05:57:40.733Z,16.31
2018-12-02T05:58:41.304Z,16.36
2018-12-02T05:59:41.903Z,16.33
2018-12-02T06:00:42.452Z,16.29
2018-12-02T06:01:43.026Z,16.36
2018-12-02T06:02:43.599Z,16.33
2018-12-02T06:03:44.175Z,16.36
2018-12-02T06:04:44.748Z,16.32
2018-12-02T06:05:45.371Z,16.31
2018-12-02T06:06:45.948Z,16.31
2018-12-02T06:07:46.573Z,16.28
2018-12-02T06:08:47.145Z,16.32
2018-12-02T06:09:47.769Z,16.16
2018-12-02T06:10:48.344Z,16.31
2018-12-02T06:11:48.915Z,16.24
2018-12-02T06:12:49.489Z,16.31
2018-12-02T06:13:50.063Z,16.32
2018-12-02T06:14:50.637Z,16.32
2018-12-02T06:16:35.725Z,16.32
2018-12-02T06:17:36.301Z,16.15
2018-12-02T06:18:36.873Z,16.32
2018-12-02T06:19:37.449Z,16.24
2018-12-02T06:20:38.021Z,16.15
2018-12-02T06:21:38.597Z,16.23
2018-12-02T06:22:39.169Z,16.26
2018-12-02T06:23:39.794Z,16.16
2018-12-02T06:24:40.365Z,16.26
2018-12-02T06:25:46.439Z,16.20
2018-12-02T06:26:42.555Z,16.24
2018-12-02T06:27:43.177Z,16.26
2018-12-02T06:28:43.753Z,16.13
2018-12-02T06:29:44.328Z,16.23
2018-12-02T06:30:44.951Z,16.20
2018-12-02T06:31:45.526Z,16.21
2018-12-02T06:32:46.102Z,16.23
2018-12-02T06:33:46.772Z,16.26
2018-12-02T06:34:47.347Z,16.21
2018-12-02T06:35:47.920Z,16.09
2018-12-02T06:36:48.495Z,16.13
2018-12-02T06:38:33.579Z,16.21
2018-12-02T06:39:34.155Z,16.17
2018-12-02T06:40:34.731Z,16.13
2018-12-02T06:41:35.305Z,16.17
2018-12-02T06:42:35.878Z,16.23
2018-12-02T06:43:36.552Z,16.20
2018-12-02T06:44:37.128Z,16.16
2018-12-02T06:45:37.701Z,16.21
2018-12-02T06:46:38.275Z,16.21
2018-12-02T06:47:38.852Z,16.20
2018-12-02T06:48:39.423Z,16.20
2018-12-02T06:49:39.999Z,16.20
2018-12-02T06:50:40.622Z,16.16
2018-12-02T06:51:41.195Z,16.12
2018-12-02T06:52:41.768Z,16.04
2018-12-02T06:53:42.341Z,16.13
2018-12-02T06:54:42.915Z,16.15
2018-12-02T06:55:43.489Z,16.13
2018-12-02T06:56:44.063Z,16.20
2018-12-02T06:57:44.689Z,16.13
2018-12-02T06:58:45.269Z,16.13
2018-12-02T07:00:30.350Z,16.17
2018-12-02T07:01:30.975Z,16.20
2018-12-02T07:02:31.549Z,16.12
2018-12-02T07:03:32.123Z,16.09
2018-12-02T07:04:32.696Z,16.20
2018-12-02T07:05:33.269Z,16.15
2018-12-02T07:06:33.892Z,16.17
2018-12-02T07:07:34.467Z,16.20
2018-12-02T07:08:35.039Z,16.17
2018-12-02T07:09:35.617Z,16.15
2018-12-02T07:10:36.187Z,16.15
2018-12-02T07:11:36.761Z,16.08
2018-12-02T07:12:37.336Z,16.05
2018-12-02T07:13:37.910Z,16.04
2018-12-02T07:14:38.484Z,16.02
2018-12-02T07:15:39.057Z,16.04
2018-12-02T07:16:39.633Z,16.12
2018-12-02T07:17:40.254Z,16.05
2018-12-02T07:18:40.879Z,16.10
2018-12-02T07:19:41.454Z,16.04
2018-12-02T07:20:42.028Z,16.05
2018-12-02T07:22:27.166Z,16.08
2018-12-02T07:23:27.740Z,16.12
2018-12-02T07:24:28.313Z,16.05
2018-12-02T07:25:28.889Z,16.09
2018-12-02T07:26:29.460Z,16.08
2018-12-02T07:27:30.034Z,16.09
2018-12-02T07:28:30.606Z,16.10
2018-12-02T07:29:31.180Z,16.04
2018-12-02T07:30:31.753Z,16.05
2018-12-02T07:31:32.378Z,16.02
2018-12-02T07:32:32.952Z,16.10
2018-12-02T07:33:33.529Z,16.10
2018-12-02T07:34:34.151Z,16.01
2018-12-02T07:35:34.724Z,16.12
2018-12-02T07:36:35.347Z,16.10
2018-12-02T07:37:35.924Z,16.05
2018-12-02T07:38:36.499Z,16.04
2018-12-02T07:39:37.076Z,16.08
2018-12-02T07:40:37.689Z,16.02
2018-12-02T07:41:38.319Z,16.02
2018-12-02T07:42:38.889Z,16.08
2018-12-02T07:44:23.976Z,16.09
2018-12-02T07:45:24.552Z,16.09
2018-12-02T07:46:25.125Z,16.05
2018-12-02T07:47:25.700Z,16.05
2018-12-02T07:48:26.272Z,16.02
2018-12-02T07:49:26.849Z,16.09
2018-12-02T07:50:27.464Z,16.10
2018-12-02T07:51:28.087Z,16.02
2018-12-02T07:52:28.660Z,16.05
2018-12-02T07:53:29.232Z,16.09
2018-12-02T07:54:29.806Z,16.05
2018-12-02T07:55:30.378Z,16.04
2018-12-02T07:56:31.001Z,16.09
2018-12-02T07:57:31.576Z,16.08
2018-12-02T07:58:32.150Z,16.05
2018-12-02T07:59:32.724Z,16.08
2018-12-02T08:00:33.300Z,16.05
2018-12-02T08:01:33.922Z,16.05
2018-12-02T08:02:34.496Z,16.08
2018-12-02T08:03:35.071Z,16.04
2018-12-02T08:04:35.643Z,16.05
2018-12-02T08:06:20.730Z,16.12
2018-12-02T08:07:21.349Z,16.04
2018-12-02T08:08:21.921Z,16.04
2018-12-02T08:09:22.497Z,16.05
2018-12-02T08:10:23.069Z,16.04
2018-12-02T08:11:23.692Z,16.04
2018-12-02T08:12:24.265Z,16.04
2018-12-02T08:13:24.838Z,16.04
2018-12-02T08:14:25.409Z,16.05
2018-12-02T08:15:26.034Z,16.02
2018-12-02T08:16:26.607Z,16.08
2018-12-02T08:17:27.180Z,16.12
2018-12-02T08:18:27.756Z,16.12
2018-12-02T08:19:28.371Z,16.04
2018-12-02T08:20:28.996Z,16.02
2018-12-02T08:21:29.573Z,16.09
2018-12-02T08:22:30.143Z,16.08
2018-12-02T08:23:30.727Z,16.02
2018-12-02T08:24:31.288Z,16.08
2018-12-02T08:25:31.861Z,16.05
2018-12-02T08:26:32.435Z,16.04
2018-12-02T08:28:17.519Z,16.09
2018-12-02T08:29:18.148Z,16.05
2018-12-02T08:30:18.718Z,16.09
2018-12-02T08:31:19.293Z,16.02
2018-12-02T08:32:19.867Z,16.02
2018-12-02T08:33:20.445Z,16.09
2018-12-02T08:34:21.011Z,16.04
2018-12-02T08:35:21.586Z,16.04
2018-12-02T08:36:22.206Z,16.08
2018-12-02T08:37:22.830Z,16.02
2018-12-02T08:38:23.405Z,16.12
2018-12-02T08:39:23.977Z,16.12
2018-12-02T08:40:24.552Z,16.12
2018-12-02T08:41:25.127Z,16.08
2018-12-02T08:42:25.699Z,16.05
2018-12-02T08:43:26.273Z,16.08
2018-12-02T08:44:26.847Z,16.05
2018-12-02T08:45:27.418Z,16.04
2018-12-02T08:46:28.045Z,16.04
2018-12-02T08:47:28.620Z,16.08
2018-12-02T08:48:29.244Z,16.08
2018-12-02T08:50:14.333Z,16.02
2018-12-02T08:51:14.904Z,16.09
2018-12-02T08:52:15.478Z,16.15
2018-12-02T08:53:16.054Z,16.05
2018-12-02T08:54:16.776Z,16.08
2018-12-02T08:55:17.348Z,16.01
2018-12-02T08:56:17.923Z,16.04
2018-12-02T08:57:18.495Z,16.17
2018-12-02T08:58:19.118Z,16.13
2018-12-02T08:59:19.692Z,16.23
2018-12-02T09:00:20.271Z,16.23
2018-12-02T09:01:20.838Z,16.21
2018-12-02T09:02:21.611Z,16.17
2018-12-02T09:03:22.185Z,16.15
2018-12-02T09:04:22.758Z,16.15
2018-12-02T09:05:23.332Z,16.21
2018-12-02T09:06:23.911Z,16.15
2018-12-02T09:07:24.480Z,16.21
2018-12-02T09:08:25.056Z,16.17
2018-12-02T09:09:25.679Z,16.21
2018-12-02T09:10:26.253Z,16.20
2018-12-02T09:12:11.337Z,16.35
2018-12-02T09:13:11.912Z,16.31
2018-12-02T09:14:12.486Z,16.32
2018-12-02T09:15:13.059Z,16.38
2018-12-02T09:16:13.633Z,16.33
2018-12-02T09:17:14.207Z,16.41
2018-12-02T09:18:14.831Z,16.32
2018-12-02T09:20:17.012Z,16.47
2018-12-02T09:21:17.578Z,16.41
2018-12-02T09:22:18.142Z,16.49
2018-12-02T09:23:18.709Z,16.42
2018-12-02T09:24:19.281Z,16.43
2018-12-02T09:25:32.583Z,16.50
2018-12-02T09:26:33.144Z,16.42
2018-12-02T09:27:33.765Z,16.43
2018-12-02T09:28:34.329Z,16.57
2018-12-02T09:29:34.896Z,16.43
2018-12-02T09:30:35.463Z,16.46
2018-12-02T09:31:36.030Z,16.57
2018-12-02T09:32:36.600Z,16.53
2018-12-02T09:34:21.514Z,16.54
2018-12-02T09:35:22.082Z,16.49
2018-12-02T09:36:22.651Z,16.56
2018-12-02T09:37:23.221Z,16.65
2018-12-02T09:38:23.787Z,16.56
2018-12-02T09:39:24.357Z,16.58
2018-12-02T09:40:24.925Z,16.56
2018-12-02T09:41:39.405Z,16.60
2018-12-02T09:42:39.971Z,16.57
2018-12-02T09:43:40.539Z,16.58
2018-12-02T09:45:06.935Z,16.65
2018-12-02T09:46:07.503Z,16.61
2018-12-02T09:47:08.075Z,16.65
2018-12-02T09:48:08.642Z,16.64
2018-12-02T09:49:09.615Z,16.60
2018-12-02T09:50:10.233Z,16.61
2018-12-02T09:51:10.805Z,16.61
2018-12-02T09:52:25.138Z,16.65
2018-12-02T09:53:25.706Z,16.60
2018-12-02T09:54:26.275Z,16.61
2018-12-02T09:55:26.845Z,16.69
2018-12-02T09:56:27.564Z,16.61
2018-12-02T09:57:28.091Z,16.72
2018-12-02T09:58:28.707Z,16.74
2018-12-02T09:59:29.276Z,16.68
2018-12-02T10:00:34.181Z,16.75
2018-12-02T10:01:31.410Z,16.69
2018-12-02T10:02:32.025Z,16.69
2018-12-02T10:03:32.599Z,16.76
2018-12-02T10:05:02.945Z,16.76
2018-12-02T10:08:26.214Z,16.74
2018-12-02T10:10:28.345Z,16.74
2018-12-02T10:11:28.966Z,16.71
2018-12-02T10:12:29.535Z,16.71
2018-12-02T10:13:30.254Z,16.72
2018-12-02T10:14:30.823Z,16.66
2018-12-02T10:15:31.394Z,16.69
2018-12-02T10:16:31.962Z,16.66
2018-12-02T10:17:32.529Z,16.69
2018-12-02T10:18:33.104Z,16.71
2018-12-02T10:19:33.670Z,16.74
2018-12-02T10:20:34.240Z,16.72
2018-12-02T10:21:34.811Z,16.72
2018-12-02T10:22:35.430Z,16.74
2018-12-02T10:23:36.002Z,16.71
2018-12-02T10:24:36.572Z,16.69
2018-12-02T10:25:37.140Z,16.71
2018-12-02T10:26:37.711Z,16.71
2018-12-02T10:27:38.283Z,16.74
2018-12-02T10:28:38.903Z,16.71
2018-12-02T10:30:23.819Z,16.74
2018-12-02T10:31:24.385Z,16.71
2018-12-02T10:32:24.957Z,16.79
2018-12-02T10:33:25.577Z,16.75
2018-12-02T10:34:26.148Z,16.75
2018-12-02T10:35:26.716Z,16.74
2018-12-02T10:36:41.101Z,16.72
2018-12-02T10:37:41.669Z,16.78
2018-12-02T10:38:42.239Z,16.74
2018-12-02T10:39:42.807Z,16.69
2018-12-02T10:40:43.380Z,16.76
2018-12-02T10:41:43.948Z,16.71
2018-12-02T10:42:44.517Z,16.72
2018-12-02T10:43:45.088Z,16.74
2018-12-02T10:44:45.657Z,16.74
2018-12-02T10:45:46.226Z,16.81
2018-12-02T10:46:46.800Z,16.72
2018-12-02T10:47:47.417Z,16.79
2018-12-02T10:48:48.036Z,16.78
2018-12-02T10:49:48.606Z,16.83
2018-12-02T10:50:49.176Z,16.79
2018-12-02T10:51:49.747Z,16.83
2018-12-02T10:52:50.317Z,16.76
2018-12-02T10:53:50.939Z,16.76
2018-12-02T10:54:51.509Z,16.84
2018-12-02T10:55:52.077Z,16.72
2018-12-02T10:56:52.652Z,16.72
2018-12-02T10:58:37.566Z,16.79
2018-12-02T10:59:38.135Z,16.79
2018-12-02T11:00:38.706Z,16.79
2018-12-02T11:01:39.276Z,16.84
2018-12-02T11:02:39.846Z,16.86
2018-12-02T11:03:40.431Z,16.83
2018-12-02T11:04:41.028Z,16.83
2018-12-02T11:05:41.747Z,16.86
2018-12-02T11:06:42.317Z,16.91
2018-12-02T11:07:42.892Z,16.76
2018-12-02T11:08:43.610Z,16.86
2018-12-02T11:09:44.179Z,16.90
2018-12-02T11:10:44.750Z,16.84
2018-12-02T11:11:45.321Z,16.91
2018-12-02T11:12:45.890Z,16.89
2018-12-02T11:13:46.510Z,16.87
2018-12-02T11:14:47.083Z,16.97
2018-12-02T11:15:47.696Z,16.96
2018-12-02T11:16:48.267Z,16.89
2018-12-02T11:17:48.889Z,16.93
2018-12-02T11:18:49.458Z,16.96
2018-12-02T11:20:34.425Z,16.87
2018-12-02T11:21:34.995Z,16.90
2018-12-02T11:22:35.566Z,16.93
2018-12-02T11:23:36.227Z,16.89
2018-12-02T11:24:36.798Z,16.91
2018-12-02T11:25:37.367Z,16.93
2018-12-02T11:26:37.937Z,16.96
2018-12-02T11:27:38.558Z,16.99
2018-12-02T11:28:39.126Z,16.99
2018-12-02T11:29:39.698Z,16.93
2018-12-02T11:30:40.269Z,16.93
2018-12-02T11:31:40.838Z,16.87
2018-12-02T11:32:41.410Z,16.93
2018-12-02T11:33:42.030Z,16.94
2018-12-02T11:34:42.605Z,16.94
2018-12-02T11:35:43.270Z,17.01
2018-12-02T11:36:43.836Z,16.89
2018-12-02T11:37:44.405Z,16.90
2018-12-02T11:38:44.977Z,16.94
2018-12-02T11:39:45.549Z,16.93
2018-12-02T11:42:27.099Z,16.90
2018-12-02T11:43:27.673Z,16.87
2018-12-02T11:44:28.239Z,16.93
2018-12-02T11:45:28.808Z,16.89
2018-12-02T11:46:29.379Z,16.91
2018-12-02T11:47:29.948Z,16.96
2018-12-02T11:48:30.517Z,16.90
2018-12-02T11:49:31.138Z,16.94
2018-12-02T11:50:31.707Z,17.01
2018-12-02T11:51:32.328Z,16.96
2018-12-02T11:52:32.897Z,16.91
2018-12-02T11:53:33.468Z,16.94
2018-12-02T11:54:34.038Z,16.91
2018-12-02T11:55:34.606Z,16.93
2018-12-02T11:56:35.177Z,16.94
2018-12-02T11:57:35.748Z,16.96
2018-12-02T11:58:36.318Z,16.96
2018-12-02T11:59:36.888Z,16.97
2018-12-02T12:00:37.509Z,17.04
2018-12-02T12:01:38.079Z,17.01
2018-12-02T12:02:38.650Z,16.97
2018-12-02T12:04:23.616Z,17.05
2018-12-02T12:05:24.186Z,17.04
2018-12-02T12:06:24.800Z,17.04
2018-12-02T12:07:25.420Z,17.05
2018-12-02T12:08:25.991Z,17.01
2018-12-02T12:09:26.610Z,17.02
2018-12-02T12:10:27.180Z,17.05
2018-12-02T12:11:27.750Z,16.99
2018-12-02T12:12:28.319Z,17.08
2018-12-02T12:13:28.888Z,17.02
2018-12-02T12:14:29.462Z,16.99
2018-12-02T12:15:30.032Z,17.02
2018-12-02T12:16:30.643Z,17.05
2018-12-02T12:17:31.214Z,17.05
2018-12-02T12:18:31.783Z,17.05
2018-12-02T12:19:32.355Z,17.11
2018-12-02T12:20:32.925Z,17.09
2018-12-02T12:21:33.494Z,17.04
2018-12-02T12:22:34.065Z,17.05
2018-12-02T12:23:34.635Z,17.08
2018-12-02T12:24:35.210Z,17.09
2018-12-02T12:26:20.177Z,17.05
2018-12-02T12:27:20.748Z,17.09
2018-12-02T12:28:21.366Z,17.15
2018-12-02T12:29:21.983Z,17.16
2018-12-02T12:30:27.605Z,17.11
2018-12-02T12:31:28.278Z,17.23
2018-12-02T12:32:28.948Z,17.14
2018-12-02T12:33:29.519Z,17.15
2018-12-02T12:34:30.089Z,17.26
2018-12-02T12:35:30.758Z,17.20
2018-12-02T12:36:31.329Z,17.15
2018-12-02T12:37:31.899Z,17.22
2018-12-02T12:38:32.469Z,17.24
2018-12-02T12:39:33.041Z,17.12
2018-12-02T12:40:47.434Z,17.16
2018-12-02T12:41:48.004Z,17.14
2018-12-02T12:42:48.575Z,17.20
2018-12-02T12:43:49.151Z,17.26
2018-12-02T12:44:49.764Z,17.06
2018-12-02T12:45:50.334Z,17.14
2018-12-02T12:46:50.904Z,17.15
2018-12-02T12:47:51.525Z,17.11
2018-12-02T12:48:52.094Z,17.22
2018-12-02T12:49:52.666Z,17.24
2018-12-02T12:51:54.849Z,17.19
2018-12-02T12:52:55.418Z,17.23
2018-12-02T12:53:55.992Z,17.24
2018-12-02T12:54:56.559Z,17.22
2018-12-02T12:55:57.180Z,17.23
2018-12-02T12:56:57.752Z,17.26
2018-12-02T12:57:58.321Z,17.33
2018-12-02T12:58:58.941Z,17.24
2018-12-02T12:59:59.512Z,17.30
2018-12-02T13:01:00.082Z,17.24
2018-12-02T13:02:45.009Z,17.30
2018-12-02T13:03:45.622Z,17.34
2018-12-02T13:04:46.236Z,17.36
2018-12-02T13:05:46.808Z,17.31
2018-12-02T13:06:47.421Z,17.34
2018-12-02T13:07:48.236Z,17.27
2018-12-02T13:08:48.835Z,17.29
2018-12-02T13:09:54.455Z,17.39
2018-12-02T13:10:55.026Z,17.30
2018-12-02T13:11:55.594Z,17.33
2018-12-02T13:12:56.219Z,17.39
2018-12-02T13:13:56.787Z,17.34
2018-12-02T13:14:57.357Z,17.46
2018-12-02T13:15:57.929Z,17.45
2018-12-02T13:16:58.499Z,17.41
2018-12-02T13:17:59.071Z,17.42
2018-12-02T13:18:59.641Z,17.45
2018-12-02T13:20:00.259Z,17.42
2018-12-02T13:21:00.833Z,17.45
2018-12-02T13:22:01.406Z,17.38
2018-12-02T13:23:02.019Z,17.44
2018-12-02T13:24:46.936Z,17.45
2018-12-02T13:25:47.505Z,17.36
2018-12-02T13:26:48.077Z,17.44
2018-12-02T13:27:48.648Z,17.46
2018-12-02T13:28:49.216Z,17.39
2018-12-02T13:29:49.787Z,17.46
2018-12-02T13:30:50.411Z,17.45
2018-12-02T13:31:50.981Z,17.39
2018-12-02T13:32:51.560Z,17.45
2018-12-02T13:33:52.165Z,17.45
2018-12-02T13:34:52.737Z,17.48